Flight Track Log - Related Links

Times and Time Zones

All times are in EDT time to prevent confusion due to time zone crossing. See the EJA677P flight status page for this flight to view local times or setup timezone preferences in your user account.

Time Position Orientation Groundspeed Altitude Reporting Facility
EDT Latitude Longitude Course Direction KTS MPH feet Rate Location/Type
Tue 04:25:05 PM 34.7975 -82.2378 170° South 264 304 6,900  Level Atlanta Center
Tue 04:26:05 PM 34.7242 -82.2217 170° South 285 328 9,500 1,650 Climbing Atlanta Center
Tue 04:27:05 PM 34.6447 -82.2083 172° South 280 322 10,200 2,150 Climbing Atlanta Center
Tue 04:28:05 PM 34.5631 -82.1925 171° South 290 334 13,800 1,549 Climbing Atlanta Center
Tue 04:30:07 PM 34.3950 -82.0925 154° Southeast 353 406 14,900 363 Climbing Jacksonville Center
Tue 04:31:07 PM 34.3297 -82.0000 131° Southeast 353 406 14,900  Level Jacksonville Center
Tue 04:32:07 PM 34.2622 -81.9028 130° Southeast 363 418 14,900  Level Jacksonville Center
Tue 04:33:07 PM 34.1928 -81.8081 132° Southeast 374 430 14,900  Level Jacksonville Center
Tue 04:34:07 PM 34.1314 -81.7183 130° Southeast 368 423 14,900 50 Level Jacksonville Center
Tue 04:35:07 PM 34.0700 -81.6367 132° Southeast 347 399 15,000 50 Climbing Jacksonville Center
Tue 04:36:07 PM 34.0108 -81.5522 130° Southeast 336 387 15,000  Level Jacksonville Center
Tue 04:37:07 PM 33.9494 -81.4681 131° Southeast 330 380 15,000  Level Jacksonville Center
Tue 04:38:07 PM 33.8858 -81.3764 130° Southeast 335 386 15,000 -450 Level Jacksonville Center
Tue 04:39:07 PM 33.8200 -81.2878 132° Southeast 347 399 14,100 -950 Descending Jacksonville Center
Tue 04:40:07 PM 33.7478 -81.1892 131° Southeast 352 405 13,100 -1,000 Descending Jacksonville Center
Tue 04:41:07 PM 33.6839 -81.1031 132° Southeast 352 405 12,100 -950 Descending Jacksonville Center
Tue 04:42:07 PM 33.6222 -81.0194 132° Southeast 352 405 11,200 -550 Descending Jacksonville Center
Tue 04:43:07 PM 33.5625 -80.9358 131° Southeast 347 399 11,000 -100 Descending Jacksonville Center
Tue 04:44:07 PM 33.5006 -80.8525 132° Southeast 333 383 11,000  Level Jacksonville Center
Tue 04:45:07 PM 33.4408 -80.7719 132° Southeast 328 377 11,000  Level Jacksonville Center
Tue 04:46:07 PM 33.3789 -80.6886 132° Southeast 333 383 11,000  Level Jacksonville Center
Tue 04:47:07 PM 33.3169 -80.6058 132° Southeast 333 383 11,000 -450 Level Jacksonville Center
Tue 04:48:07 PM 33.2508 -80.5356 138° Southeast 327 376 10,100 -1,200 Descending Jacksonville Center
Tue 04:49:07 PM 33.1872 -80.4750 141° Southeast 305 351 8,600 -1,550 Descending Jacksonville Center
Tue 04:50:07 PM 33.1236 -80.4197 144° Southeast 293 337 7,000 -1,300 Descending Jacksonville Center
Tue 04:51:07 PM 33.0578 -80.3719 149° Southeast 288 331 6,000 -1,350 Descending Jacksonville Center
Tue 04:52:07 PM 32.9922 -80.3317 153° Southeast 275 316 4,300 -2,000 Descending Jacksonville Center
Tue 04:53:07 PM 32.9269 -80.2939 154° Southeast 263 303 2,000 -1,350 Descending Jacksonville Center
Tue 04:54:07 PM 32.8800 -80.2508 142° Southeast 247 284 1,600 -400 Descending Jacksonville Center
Tue 04:56:00 PM 32.8967 -80.0623 140° Southeast  Level Estimated
Tue 05:03:00 PM 32.8986 -80.0405 140° Southeast  Level Estimated
Tue 05:04:00 PM 32.8986 -80.0405 140° Southeast  Level Estimated
Tue 05:05:00 PM 32.8986 -80.0405 140° Southeast  Level Estimated
Tue 05:06:00 PM 32.8986 -80.0405 140° Southeast  Level Estimated
Tue 05:07:00 PM 32.8986 -80.0405 140° Southeast  Level Estimated

Login

Don't have an account? Register now (free) for customized features, flight alerts, and more!